Карточка аэропорта UERP

Внимание!
Информация на этой странице в стадии наполнения.
Если вы не увидели какой-то информации, или заметили неточность - пожалуйста сообщите нам!
Спасибо!
Команда RU-STAFF
Название аэропортаПолярный
Название аэропорта (англ.)Poliarny
Превышение1673 ft. (509.9 m.)
Координаты66°23.85', 112°2.0999999999998'
Высота перехода700m
Эшелон переходаQFE>=714mm:FL050; QFE<714=>687:FL060; QFE<687:FL070
Коды ответчика1000
Зона ОрВДЯкутск РПИ (UEEE)
Данные METARUERP 250530Z 10006G11MPS 9999 BKN009 BKN013CB OVC100 09/08 Q1012 R36/120260 NOSIG RMK QFE715
Проноз погоды (TAF)UERP 250500Z 2506/2606 10005G10MPS 8000 BKN008 BKN012CB OVC100 TEMPO 2506/2510 VRB08MPS 2100 -TSRA BR BKN005 BKN011CB OVC100 TEMPO 2512/2524 2500 -SHRA BR SCT007 BKN012CB OVC100
NOTAMshow/hide NOTAM
AWOS   TABLE

Информация о ВПП

ВПП Длина ВПП (м.) Покрытие Курс ВПП Частота ILS
353100Железобетон353108.1
173100Железобетон173 

Диспетчерские позиции

Позывной Наименование органа УВД Частота
UERP_TWRПолярный-Вышка124.200
UERP_CTRПолярный-Контроль132.1



Спутниковое изображение